createdAt,value
2023-06-04T00:00:45.015Z,65.09
2023-06-04T00:01:44.986Z,64.69
2023-06-04T00:02:44.128Z,64.37
2023-06-04T00:03:44.143Z,64.40
2023-06-04T00:04:44.077Z,63.63
2023-06-04T00:05:44.967Z,64.05
2023-06-04T00:06:43.984Z,63.79
2023-06-04T00:07:44.949Z,63.08
2023-06-04T00:08:44.999Z,63.82
2023-06-04T00:09:44.950Z,63.30
2023-06-04T00:10:44.938Z,63.54
2023-06-04T00:11:45.013Z,64.17
2023-06-04T00:12:44.930Z,63.87
2023-06-04T00:13:43.946Z,63.61
2023-06-04T00:14:44.949Z,62.96
2023-06-04T00:15:43.885Z,62.36
2023-06-04T00:16:44.955Z,61.90
2023-06-04T00:17:44.901Z,61.51
2023-06-04T00:18:44.901Z,61.11
2023-06-04T00:19:44.894Z,60.88
2023-06-04T00:20:43.861Z,60.62
2023-06-04T00:21:44.914Z,60.51
2023-06-04T00:22:43.868Z,61.42
2023-06-04T00:23:43.941Z,61.54
2023-06-04T00:24:44.840Z,61.39
2023-06-04T00:25:43.833Z,61.98
2023-06-04T00:26:44.820Z,62.13
2023-06-04T00:27:44.785Z,62.63
2023-06-04T00:28:43.809Z,63.06
2023-06-04T00:29:44.802Z,63.03
2023-06-04T00:30:43.777Z,62.79
2023-06-04T00:31:43.885Z,62.83
2023-06-04T00:32:44.825Z,63.38
2023-06-04T00:33:44.771Z,64.39
2023-06-04T00:34:44.859Z,64.47
2023-06-04T00:35:43.835Z,64.87
2023-06-04T00:36:44.860Z,64.04
2023-06-04T00:37:44.934Z,64.49
2023-06-04T00:38:44.959Z,64.13
2023-06-04T00:39:44.020Z,64.73
2023-06-04T00:40:45.058Z,64.57
2023-06-04T00:41:44.084Z,64.51
2023-06-04T00:42:45.151Z,63.84
2023-06-04T00:43:44.181Z,63.23
2023-06-04T00:44:45.217Z,62.89
2023-06-04T00:45:45.311Z,62.77
2023-06-04T00:46:44.313Z,62.67
2023-06-04T00:47:45.465Z,62.48
2023-06-04T00:48:44.410Z,62.25
2023-06-04T00:49:44.486Z,62.23
2023-06-04T00:50:45.518Z,62.11
2023-06-04T00:51:45.557Z,62.02
2023-06-04T00:52:44.620Z,62.20
2023-06-04T00:53:44.646Z,62.72
2023-06-04T00:54:44.723Z,62.52
2023-06-04T00:55:45.743Z,62.56
2023-06-04T00:56:45.814Z,62.10
2023-06-04T00:57:45.822Z,61.69
2023-06-04T00:58:45.876Z,61.25
2023-06-04T00:59:44.951Z,60.91
2023-06-04T01:00:44.987Z,60.66
2023-06-04T01:01:46.102Z,60.83
2023-06-04T01:02:46.129Z,61.70
2023-06-04T01:03:46.171Z,61.15
2023-06-04T01:04:45.193Z,60.71
2023-06-04T01:05:45.246Z,60.39
2023-06-04T01:06:45.289Z,60.39
2023-06-04T01:07:46.308Z,60.15
2023-06-04T01:08:45.289Z,60.14
2023-06-04T01:09:46.389Z,60.01
2023-06-04T01:10:46.392Z,59.80
2023-06-04T01:11:46.505Z,59.76
2023-06-04T01:12:45.440Z,59.84
2023-06-04T01:13:46.425Z,59.83
2023-06-04T01:14:45.487Z,59.75
2023-06-04T01:15:45.489Z,59.75
2023-06-04T01:16:46.515Z,59.66
2023-06-04T01:17:46.506Z,59.57
2023-06-04T01:18:45.494Z,59.39
2023-06-04T01:19:46.530Z,59.36
2023-06-04T01:20:46.536Z,59.26
2023-06-04T01:21:46.550Z,59.26
2023-06-04T01:22:46.579Z,59.19
2023-06-04T01:23:46.651Z,59.67
2023-06-04T01:24:45.662Z,59.45
2023-06-04T01:25:45.674Z,59.59
2023-06-04T01:26:46.717Z,59.43
2023-06-04T01:27:45.712Z,59.46
2023-06-04T01:28:46.782Z,59.65
2023-06-04T01:29:46.821Z,59.74
2023-06-04T01:30:45.857Z,59.70
2023-06-04T01:31:46.907Z,59.41
2023-06-04T01:32:46.029Z,59.33
2023-06-04T01:33:46.949Z,59.30
2023-06-04T01:34:46.980Z,59.21
2023-06-04T01:35:47.049Z,59.41
2023-06-04T01:36:47.058Z,59.57
2023-06-04T01:37:47.106Z,59.60
2023-06-04T01:38:47.127Z,59.54
2023-06-04T01:39:47.182Z,59.62
2023-06-04T01:40:46.190Z,59.74
2023-06-04T01:41:46.271Z,59.77
2023-06-04T01:42:46.301Z,59.80
2023-06-04T01:43:46.352Z,59.86
2023-06-04T01:44:47.369Z,59.62
2023-06-04T01:45:47.420Z,59.55
2023-06-04T01:46:47.463Z,59.52
2023-06-04T01:47:47.548Z,59.51
2023-06-04T01:48:47.499Z,59.79
2023-06-04T01:49:46.531Z,60.34
2023-06-04T01:50:47.519Z,59.89
2023-06-04T01:51:46.543Z,60.38
2023-06-04T01:52:47.608Z,60.40
2023-06-04T01:53:47.646Z,60.39
2023-06-04T01:54:47.737Z,60.60
2023-06-04T01:55:47.798Z,60.44
2023-06-04T01:56:47.832Z,60.10
2023-06-04T01:57:46.848Z,60.03
2023-06-04T01:58:46.902Z,59.86
2023-06-04T01:59:47.888Z,60.15
2023-06-04T02:00:47.921Z,60.57
2023-06-04T02:01:46.991Z,61.28
2023-06-04T02:02:47.963Z,62.82
2023-06-04T02:03:47.911Z,63.92
2023-06-04T02:04:47.923Z,64.89
2023-06-04T02:05:47.965Z,65.46
2023-06-04T02:06:48.001Z,65.51
2023-06-04T02:07:47.036Z,66.13
2023-06-04T02:08:48.043Z,66.43
2023-06-04T02:09:48.102Z,66.80
2023-06-04T02:10:48.155Z,67.06
2023-06-04T02:11:48.161Z,66.85
2023-06-04T02:12:47.190Z,66.22
2023-06-04T02:13:48.189Z,66.19
2023-06-04T02:14:47.205Z,66.35
2023-06-04T02:15:48.207Z,67.18
2023-06-04T02:16:47.347Z,66.55
2023-06-04T02:17:47.281Z,66.97
2023-06-04T02:18:47.287Z,67.24
2023-06-04T02:19:48.363Z,67.03
2023-06-04T02:20:48.355Z,67.14
2023-06-04T02:21:47.394Z,66.92
2023-06-04T02:22:47.436Z,66.85
2023-06-04T02:23:48.629Z,66.61
2023-06-04T02:24:48.531Z,66.10
2023-06-04T02:25:48.625Z,66.08
2023-06-04T02:26:48.588Z,66.73
2023-06-04T02:27:47.579Z,67.09
2023-06-04T02:28:47.615Z,66.94
2023-06-04T02:29:48.635Z,67.03
2023-06-04T02:30:48.681Z,67.03
2023-06-04T02:31:47.732Z,66.47
2023-06-04T02:32:50.258Z,67.06
2023-06-04T02:33:49.524Z,67.00
2023-06-04T02:34:48.730Z,67.04
2023-06-04T02:35:47.717Z,66.89
2023-06-04T02:36:48.698Z,66.39
2023-06-04T02:37:47.722Z,66.08
2023-06-04T02:38:48.717Z,65.75
2023-06-04T02:39:48.704Z,65.07
2023-06-04T02:40:47.690Z,64.69
2023-06-04T02:41:47.676Z,64.44
2023-06-04T02:42:47.701Z,64.11
2023-06-04T02:43:48.668Z,63.76
2023-06-04T02:44:48.659Z,63.40
2023-06-04T02:45:48.664Z,62.92
2023-06-04T02:46:48.639Z,62.61
2023-06-04T02:47:48.771Z,62.42
2023-06-04T02:48:48.642Z,62.25
2023-06-04T02:49:49.510Z,62.30
2023-06-04T02:50:48.636Z,62.97
2023-06-04T02:51:48.650Z,64.56
2023-06-04T02:52:48.715Z,66.06
2023-06-04T02:53:48.755Z,65.80
2023-06-04T02:54:48.823Z,65.96
2023-06-04T02:55:48.884Z,65.07
2023-06-04T02:56:47.930Z,64.80
2023-06-04T02:57:48.994Z,65.32
2023-06-04T02:58:49.025Z,65.91
2023-06-04T02:59:48.105Z,66.53
2023-06-04T03:00:48.141Z,67.14
2023-06-04T03:01:49.239Z,67.06
2023-06-04T03:02:49.362Z,67.27
2023-06-04T03:03:49.369Z,67.77
2023-06-04T03:04:49.328Z,68.54
2023-06-04T03:05:49.350Z,68.88
2023-06-04T03:06:49.371Z,69.44
2023-06-04T03:07:49.427Z,69.11
2023-06-04T03:08:49.397Z,69.15
2023-06-04T03:09:48.487Z,68.85
2023-06-04T03:10:50.011Z,68.86
2023-06-04T03:11:48.495Z,68.11
2023-06-04T03:12:48.512Z,67.27
2023-06-04T03:13:49.511Z,66.84
2023-06-04T03:14:49.592Z,65.97
2023-06-04T03:15:48.625Z,65.44
2023-06-04T03:16:48.630Z,64.83
2023-06-04T03:17:48.703Z,64.39
2023-06-04T03:18:49.659Z,64.01
2023-06-04T03:19:49.716Z,63.71
2023-06-04T03:20:48.741Z,63.48
2023-06-04T03:21:48.754Z,63.60
2023-06-04T03:22:49.784Z,63.48
2023-06-04T03:23:48.830Z,63.11
2023-06-04T03:24:49.850Z,63.08
2023-06-04T03:25:49.894Z,62.96
2023-06-04T03:26:49.942Z,63.20
2023-06-04T03:27:49.982Z,63.71
2023-06-04T03:28:50.026Z,64.09
2023-06-04T03:29:49.061Z,64.52
2023-06-04T03:30:50.132Z,64.05
2023-06-04T03:31:50.128Z,64.78
2023-06-04T03:32:50.216Z,64.89
2023-06-04T03:33:50.235Z,64.29
2023-06-04T03:34:49.262Z,64.05
2023-06-04T03:35:50.323Z,63.65
2023-06-04T03:36:49.378Z,64.13
2023-06-04T03:37:50.449Z,64.30
2023-06-04T03:38:50.491Z,63.76
2023-06-04T03:39:49.568Z,63.74
2023-06-04T03:40:50.621Z,63.55
2023-06-04T03:41:50.658Z,63.33
2023-06-04T03:42:49.701Z,63.16
2023-06-04T03:43:50.738Z,63.22
2023-06-04T03:44:49.790Z,63.34
2023-06-04T03:45:50.859Z,63.35
2023-06-04T03:46:50.027Z,63.18
2023-06-04T03:47:50.981Z,63.19
2023-06-04T03:48:50.967Z,63.09
2023-06-04T03:49:51.017Z,63.07
2023-06-04T03:50:51.075Z,62.80
2023-06-04T03:51:50.120Z,62.66
2023-06-04T03:52:50.152Z,62.27
2023-06-04T03:53:51.206Z,62.58
2023-06-04T03:54:51.247Z,62.21
2023-06-04T03:55:50.301Z,62.07
2023-06-04T03:56:51.332Z,61.80
2023-06-04T03:57:50.341Z,61.68
2023-06-04T03:58:51.386Z,61.71
2023-06-04T03:59:50.465Z,61.55
2023-06-04T04:00:50.518Z,61.50
2023-06-04T04:01:50.633Z,61.00
2023-06-04T04:02:51.636Z,60.79
2023-06-04T04:03:50.747Z,61.45
2023-06-04T04:04:51.648Z,62.49
2023-06-04T04:05:51.674Z,62.68
2023-06-04T04:06:51.704Z,63.14
2023-06-04T04:07:51.757Z,62.95
2023-06-04T04:08:51.813Z,62.90
2023-06-04T04:09:51.849Z,62.64
2023-06-04T04:10:50.905Z,62.63
2023-06-04T04:11:50.942Z,62.55
2023-06-04T04:12:53.583Z,62.43
2023-06-04T04:13:51.172Z,62.24
2023-06-04T04:14:51.201Z,61.88
2023-06-04T04:15:52.219Z,61.79
2023-06-04T04:16:52.282Z,61.52
2023-06-04T04:17:51.343Z,61.30
2023-06-04T04:18:51.292Z,61.20
2023-06-04T04:19:52.342Z,61.08
2023-06-04T04:20:51.331Z,61.07
2023-06-04T04:21:51.317Z,61.16
2023-06-04T04:22:51.792Z,61.29
2023-06-04T04:23:52.430Z,60.86
2023-06-04T04:24:51.417Z,60.77
2023-06-04T04:25:52.477Z,60.58
2023-06-04T04:26:52.507Z,60.65
2023-06-04T04:27:51.609Z,60.68
2023-06-04T04:28:51.597Z,60.79
2023-06-04T04:29:52.637Z,60.70
2023-06-04T04:30:52.711Z,61.32
2023-06-04T04:31:52.677Z,60.95
2023-06-04T04:32:52.777Z,60.89
2023-06-04T04:33:52.753Z,60.64
2023-06-04T04:34:52.814Z,60.61
2023-06-04T04:35:52.052Z,60.61
2023-06-04T04:36:51.837Z,60.51
2023-06-04T04:37:52.870Z,60.46
2023-06-04T04:38:52.941Z,60.66
2023-06-04T04:39:51.956Z,60.75
2023-06-04T04:40:51.960Z,60.38
2023-06-04T04:41:51.972Z,60.30
2023-06-04T04:42:52.988Z,60.31
2023-06-04T04:43:51.985Z,60.78
2023-06-04T04:44:53.092Z,60.42
2023-06-04T04:45:52.094Z,60.26
2023-06-04T04:46:53.225Z,60.41
2023-06-04T04:47:52.260Z,60.25
2023-06-04T04:48:52.238Z,60.72
2023-06-04T04:49:53.277Z,60.46
2023-06-04T04:50:53.300Z,60.28
2023-06-04T04:51:53.331Z,60.49
2023-06-04T04:52:53.377Z,60.76
2023-06-04T04:53:53.366Z,61.04
2023-06-04T04:54:53.372Z,60.55
2023-06-04T04:55:53.409Z,61.46
2023-06-04T04:57:05.017Z,60.89
2023-06-04T04:57:53.393Z,60.54
2023-06-04T04:58:53.414Z,60.23
2023-06-04T04:59:52.371Z,60.58
2023-06-04T05:00:54.064Z,60.45
2023-06-04T05:01:52.433Z,60.46
2023-06-04T05:02:53.391Z,60.90
2023-06-04T05:03:53.415Z,62.74
2023-06-04T05:04:53.338Z,61.94
2023-06-04T05:05:52.334Z,61.48
2023-06-04T05:06:52.341Z,61.37
2023-06-04T05:07:52.329Z,61.43
2023-06-04T05:08:53.311Z,61.64
2023-06-04T05:09:52.289Z,61.50
2023-06-04T05:10:53.384Z,61.63
2023-06-04T05:11:53.411Z,62.00
2023-06-04T05:12:52.421Z,61.87
2023-06-04T05:13:52.432Z,61.58
2023-06-04T05:14:52.455Z,61.66
2023-06-04T05:15:53.497Z,61.38
2023-06-04T05:16:53.606Z,61.48
2023-06-04T05:17:53.522Z,61.05
2023-06-04T05:18:53.532Z,60.87
2023-06-04T05:19:53.542Z,60.85
2023-06-04T05:20:52.607Z,60.83
2023-06-04T05:21:54.575Z,60.49
2023-06-04T05:22:53.645Z,60.28
2023-06-04T05:23:52.736Z,61.84
2023-06-04T05:24:53.715Z,62.34
2023-06-04T05:25:52.789Z,63.48
2023-06-04T05:26:53.822Z,63.24
2023-06-04T05:27:52.878Z,63.96
2023-06-04T05:28:54.411Z,65.28
2023-06-04T05:29:53.942Z,65.71
2023-06-04T05:30:53.975Z,64.56
2023-06-04T05:31:54.036Z,64.87
2023-06-04T05:32:54.084Z,64.09
2023-06-04T05:33:54.067Z,64.02
2023-06-04T05:34:54.107Z,64.73
2023-06-04T05:35:53.157Z,64.72
2023-06-04T05:36:53.168Z,65.42
2023-06-04T05:37:54.190Z,65.12
2023-06-04T05:38:54.216Z,65.17
2023-06-04T05:39:53.200Z,65.21
2023-06-04T05:40:54.243Z,65.58
2023-06-04T05:41:54.211Z,65.71
2023-06-04T05:42:53.216Z,65.55
2023-06-04T05:43:53.222Z,65.52
2023-06-04T05:44:53.231Z,65.44
2023-06-04T05:45:54.262Z,65.46
2023-06-04T05:46:54.241Z,65.92
2023-06-04T05:47:53.293Z,66.53
2023-06-04T05:48:54.267Z,65.23
2023-06-04T05:49:54.296Z,66.26
2023-06-04T05:50:54.285Z,65.95
2023-06-04T05:51:54.299Z,65.10
2023-06-04T05:52:54.285Z,64.58
2023-06-04T05:53:54.297Z,64.61
2023-06-04T05:54:54.326Z,65.47
2023-06-04T05:55:53.341Z,65.34
2023-06-04T05:56:54.381Z,64.87
2023-06-04T05:57:54.380Z,65.59
2023-06-04T05:58:53.409Z,65.44
2023-06-04T05:59:54.443Z,66.01
2023-06-04T06:00:53.453Z,66.62
2023-06-04T06:01:54.561Z,66.66
2023-06-04T06:02:54.613Z,66.48
2023-06-04T06:03:53.731Z,65.66
2023-06-04T06:04:54.599Z,66.20
2023-06-04T06:05:53.645Z,66.04
2023-06-04T06:06:53.637Z,65.31
2023-06-04T06:07:53.742Z,64.71
2023-06-04T06:08:54.715Z,65.28
2023-06-04T06:09:54.742Z,65.78
2023-06-04T06:10:54.740Z,64.78
2023-06-04T06:11:54.766Z,64.16
2023-06-04T06:12:53.826Z,63.96
2023-06-04T06:13:54.842Z,64.64
2023-06-04T06:14:54.881Z,65.54
2023-06-04T06:15:54.953Z,64.37
2023-06-04T06:16:55.040Z,65.11
2023-06-04T06:17:54.932Z,64.54
2023-06-04T06:18:54.960Z,65.37
2023-06-04T06:19:53.978Z,65.56
2023-06-04T06:20:54.005Z,64.76
2023-06-04T06:21:55.029Z,63.98
2023-06-04T06:22:55.080Z,63.34
2023-06-04T06:23:55.246Z,62.89
2023-06-04T06:24:55.155Z,62.56
2023-06-04T06:25:55.183Z,61.91
2023-06-04T06:26:55.232Z,61.51
2023-06-04T06:27:54.249Z,61.51
2023-06-04T06:28:54.300Z,61.27
2023-06-04T06:29:55.370Z,60.90
2023-06-04T06:30:55.440Z,60.57
2023-06-04T06:31:55.432Z,61.09
2023-06-04T06:32:56.341Z,60.70
2023-06-04T06:33:54.496Z,61.11
2023-06-04T06:34:54.511Z,60.90
2023-06-04T06:35:55.560Z,61.23
2023-06-04T06:36:54.592Z,61.65
2023-06-04T08:56:56.628Z,48.44
2023-06-04T09:05:56.599Z,49.02
2023-06-04T09:06:55.569Z,48.29
2023-06-04T09:07:55.584Z,47.97
2023-06-04T09:08:58.303Z,47.77
2023-06-04T09:10:11.434Z,47.43
2023-06-04T09:10:56.537Z,46.82
2023-06-04T09:11:56.555Z,47.84
2023-06-04T09:12:56.533Z,47.36
2023-06-04T09:13:56.534Z,47.68
2023-06-04T09:14:56.542Z,47.51
2023-06-04T09:15:55.564Z,48.82
2023-06-04T09:16:56.583Z,48.29
2023-06-04T09:17:56.541Z,48.12
2023-06-04T09:18:55.493Z,47.52
2023-06-04T09:19:56.484Z,47.88
2023-06-04T09:20:55.494Z,47.43
2023-06-04T09:21:56.474Z,47.31
2023-06-04T09:22:55.468Z,47.02
2023-06-04T09:23:56.553Z,48.12
2023-06-04T09:24:55.489Z,48.28
2023-06-04T09:25:55.455Z,47.72
2023-06-04T09:26:55.432Z,47.44
2023-06-04T09:27:56.438Z,48.26
2023-06-04T09:28:55.418Z,47.94
2023-06-04T09:29:55.414Z,46.44
2023-06-04T09:30:56.467Z,47.84
2023-06-04T09:31:56.468Z,47.12
2023-06-04T09:32:56.466Z,47.03
2023-06-04T09:33:56.395Z,46.63
2023-06-04T09:34:55.403Z,45.38
2023-06-04T09:35:56.399Z,44.94
2023-06-04T09:36:56.399Z,44.56
2023-06-04T09:37:55.418Z,45.24
2023-06-04T09:38:56.399Z,45.45
2023-06-04T09:39:55.396Z,46.15
2023-06-04T09:40:55.381Z,46.67
2023-06-04T09:41:56.369Z,45.83
2023-06-04T09:42:56.708Z,45.24
2023-06-04T09:43:55.329Z,44.37
2023-06-04T09:44:56.346Z,44.29
2023-06-04T09:45:56.350Z,45.12
2023-06-04T09:46:55.471Z,45.00
2023-06-04T09:47:56.416Z,44.04
2023-06-04T09:48:56.358Z,43.92
2023-06-04T09:49:56.400Z,43.61
2023-06-04T09:50:55.425Z,43.03
2023-06-04T09:51:56.448Z,43.43
2023-06-04T09:52:56.461Z,43.53
2023-06-04T09:53:56.482Z,43.91
2023-06-04T09:54:56.521Z,43.50
2023-06-04T09:55:56.534Z,43.52
2023-06-04T09:56:56.514Z,44.16
2023-06-04T09:57:55.550Z,42.71
2023-06-04T09:58:55.588Z,42.74
2023-06-04T09:59:55.600Z,43.84
2023-06-04T10:00:56.662Z,43.85
2023-06-04T10:01:56.688Z,43.84
2023-06-04T10:02:56.810Z,44.46
2023-06-04T10:03:56.881Z,44.28
2023-06-04T10:04:56.797Z,44.31
2023-06-04T10:05:56.803Z,44.15
2023-06-04T10:06:55.852Z,44.16
2023-06-04T10:07:55.890Z,44.56
2023-06-04T10:08:55.883Z,44.20
2023-06-04T10:09:56.918Z,43.52
2023-06-04T10:10:56.968Z,43.13
2023-06-04T10:11:55.995Z,43.33
2023-06-04T10:12:56.992Z,43.17
2023-06-04T10:13:56.041Z,42.96
2023-06-04T10:14:57.061Z,43.58
2023-06-04T10:15:57.134Z,43.34
2023-06-04T10:16:56.255Z,43.15
2023-06-04T10:17:57.221Z,42.20
2023-06-04T10:18:56.226Z,42.68
2023-06-04T10:19:57.261Z,42.07
2023-06-04T10:20:57.413Z,41.52
2023-06-04T10:21:57.296Z,41.73
2023-06-04T10:22:57.343Z,42.90
2023-06-04T10:23:57.386Z,42.07
2023-06-04T10:24:56.408Z,42.40
2023-06-04T10:25:56.440Z,41.85
2023-06-04T10:26:57.489Z,41.41
2023-06-04T10:27:57.506Z,40.86
2023-06-04T10:28:57.532Z,41.71
2023-06-04T10:29:56.586Z,41.69
2023-06-04T10:30:56.556Z,41.46
2023-06-04T10:31:56.727Z,41.28
2023-06-04T10:32:57.678Z,41.38
2023-06-04T10:33:56.652Z,40.33
2023-06-04T10:34:57.702Z,39.35
2023-06-04T10:35:56.759Z,39.89
2023-06-04T10:36:57.787Z,40.25
2023-06-04T10:37:56.814Z,40.88
2023-06-04T10:38:57.791Z,40.25
2023-06-04T10:39:57.865Z,40.51
2023-06-04T10:40:57.849Z,39.69
2023-06-04T10:41:57.884Z,39.58
2023-06-04T10:42:57.909Z,39.94
2023-06-04T10:43:57.985Z,39.69
2023-06-04T10:44:58.217Z,40.00
2023-06-04T10:45:58.086Z,39.97
2023-06-04T10:46:58.020Z,39.74
2023-06-04T10:47:58.058Z,40.28
2023-06-04T10:48:58.089Z,39.77
2023-06-04T10:49:57.121Z,39.97
2023-06-04T10:50:57.168Z,40.11
2023-06-04T10:51:58.186Z,39.76
2023-06-04T10:52:58.249Z,39.35
2023-06-04T10:53:58.270Z,39.69
2023-06-04T10:54:58.284Z,39.48
2023-06-04T10:55:57.331Z,39.20
2023-06-04T10:56:58.388Z,38.99
2023-06-04T10:57:58.378Z,38.63
2023-06-04T10:58:58.431Z,38.68
2023-06-04T10:59:58.548Z,38.90
2023-06-04T11:00:58.503Z,38.38
2023-06-04T11:01:58.627Z,37.91
2023-06-04T11:02:58.575Z,37.44
2023-06-04T11:03:57.601Z,38.36
2023-06-04T11:04:57.592Z,37.62
2023-06-04T11:05:57.617Z,37.59
2023-06-04T11:06:57.629Z,37.91
2023-06-04T11:07:58.645Z,37.53
2023-06-04T11:08:58.691Z,37.46
2023-06-04T11:09:57.719Z,37.07
2023-06-04T11:10:58.760Z,37.41
2023-06-04T11:11:58.789Z,37.93
2023-06-04T11:12:58.824Z,37.74
2023-06-04T11:13:58.836Z,37.31
2023-06-04T11:14:57.871Z,38.15
2023-06-04T11:15:58.915Z,37.32
2023-06-04T11:16:58.918Z,37.75
2023-06-04T11:17:58.963Z,37.52
2023-06-04T11:18:58.969Z,37.27
2023-06-04T11:19:59.008Z,37.03
2023-06-04T11:20:59.024Z,37.23
2023-06-04T11:21:59.053Z,34.99
2023-06-04T11:22:58.069Z,35.40
2023-06-04T11:23:59.095Z,34.30
2023-06-04T11:24:59.094Z,34.29
2023-06-04T11:25:58.149Z,33.92
2023-06-04T11:27:58.169Z,35.73
2023-06-04T11:28:58.192Z,35.48
2023-06-04T11:29:59.229Z,35.27
2023-06-04T11:30:59.307Z,34.28
2023-06-04T11:31:59.345Z,34.44
2023-06-04T11:32:59.346Z,34.84
2023-06-04T11:33:59.351Z,35.58
2023-06-04T11:34:58.375Z,33.94
2023-06-04T11:35:58.451Z,34.30
2023-06-04T11:36:59.475Z,33.06
2023-06-04T11:37:59.508Z,33.82
2023-06-04T11:38:59.532Z,34.02
2023-06-04T11:39:59.605Z,35.35
2023-06-04T11:40:58.576Z,33.68
2023-06-04T11:41:58.608Z,34.40
2023-06-04T11:42:58.662Z,32.90
2023-06-04T11:43:59.659Z,33.74
2023-06-04T11:44:58.698Z,34.27
2023-06-04T11:45:59.734Z,34.61
2023-06-04T11:46:59.753Z,33.09
2023-06-04T11:47:59.880Z,33.65
2023-06-04T11:48:59.973Z,33.02
2023-06-04T11:49:59.890Z,33.21
2023-06-04T11:50:59.872Z,33.27
2023-06-04T11:51:59.906Z,33.32
2023-06-04T11:52:58.958Z,34.39
2023-06-04T11:53:59.940Z,34.30
2023-06-04T11:54:59.978Z,34.39
2023-06-04T11:55:58.999Z,34.68
2023-06-04T11:57:00.029Z,34.55
2023-06-04T11:58:00.040Z,34.49
2023-06-04T11:59:00.142Z,33.56
2023-06-04T12:00:00.187Z,32.57
2023-06-04T12:01:00.169Z,32.80
2023-06-04T12:01:59.189Z,32.92
2023-06-04T12:03:00.339Z,33.16
2023-06-04T12:04:00.248Z,34.01
2023-06-04T12:05:00.293Z,34.74
2023-06-04T12:06:00.432Z,34.49
2023-06-04T12:07:00.362Z,34.77
2023-06-04T12:08:00.409Z,34.40
2023-06-04T12:09:00.455Z,34.47
2023-06-04T12:09:59.411Z,33.69
2023-06-04T12:10:59.427Z,34.03
2023-06-04T12:12:00.462Z,34.36
2023-06-04T12:13:00.510Z,34.16
2023-06-04T12:14:00.513Z,33.90
2023-06-04T12:15:00.632Z,33.88
2023-06-04T12:16:00.564Z,33.66
2023-06-04T12:16:59.661Z,34.01
2023-06-04T12:17:59.714Z,33.97
2023-06-04T12:19:00.629Z,34.66
2023-06-04T12:20:00.688Z,34.65
2023-06-04T12:21:00.738Z,34.56
2023-06-04T12:21:59.722Z,34.16
2023-06-04T12:23:00.739Z,34.20
2023-06-04T12:24:00.860Z,34.41
2023-06-04T12:25:00.839Z,34.54
2023-06-04T12:26:00.954Z,34.89
2023-06-04T12:27:00.897Z,35.07
2023-06-04T12:27:59.934Z,34.97
2023-06-04T12:29:00.975Z,34.89
2023-06-04T12:29:59.982Z,34.01
2023-06-04T12:31:00.049Z,34.60
2023-06-04T12:32:01.009Z,34.53
2023-06-04T12:33:01.133Z,34.86
2023-06-04T12:34:00.123Z,34.26
2023-06-04T12:35:01.127Z,33.82
2023-06-04T12:36:01.138Z,34.04
2023-06-04T12:37:01.169Z,33.43
2023-06-04T12:38:00.220Z,34.18
2023-06-04T12:39:01.283Z,34.14
2023-06-04T12:40:00.289Z,34.44
2023-06-04T12:41:01.303Z,34.26
2023-06-04T12:42:00.322Z,34.24
2023-06-04T12:43:00.329Z,34.07
2023-06-04T12:44:01.373Z,33.91
2023-06-04T12:45:01.382Z,34.39
2023-06-04T12:46:01.416Z,34.58
2023-06-04T12:47:00.901Z,34.51
2023-06-04T12:48:00.590Z,33.86
2023-06-04T12:49:00.537Z,33.90
2023-06-04T12:50:01.594Z,34.09
2023-06-04T12:51:00.634Z,33.78
2023-06-04T12:52:01.652Z,33.85
2023-06-04T12:53:01.652Z,33.94
2023-06-04T12:54:01.680Z,33.88
2023-06-04T12:55:01.705Z,33.38
2023-06-04T12:56:01.708Z,33.76
2023-06-04T12:57:01.743Z,34.23
2023-06-04T12:58:01.764Z,33.92
2023-06-04T12:59:01.797Z,34.48
2023-06-04T13:00:00.837Z,34.32
2023-06-04T13:01:01.851Z,34.24
2023-06-04T13:02:00.880Z,33.85
2023-06-04T13:03:00.973Z,33.97
2023-06-04T13:04:01.024Z,33.87
2023-06-04T13:05:00.932Z,33.82
2023-06-04T13:06:01.964Z,33.65
2023-06-04T13:07:01.981Z,33.89
2023-06-04T13:08:01.029Z,33.52
2023-06-04T13:09:02.062Z,33.60
2023-06-04T13:10:02.151Z,33.58
2023-06-04T13:11:02.091Z,33.06
2023-06-04T13:12:02.128Z,33.53
2023-06-04T13:13:02.161Z,33.46
2023-06-04T13:14:02.194Z,33.58
2023-06-04T13:15:02.252Z,33.86
2023-06-04T13:16:01.311Z,34.27
2023-06-04T13:17:07.335Z,33.60
2023-06-04T13:18:02.369Z,33.77
2023-06-04T13:19:02.279Z,33.75
2023-06-04T13:20:02.312Z,33.72
2023-06-04T13:21:02.263Z,34.41
2023-06-04T13:22:01.262Z,34.36
2023-06-04T13:23:02.800Z,34.15
2023-06-04T13:24:02.262Z,34.14
2023-06-04T13:25:02.291Z,34.05
2023-06-04T13:26:02.222Z,33.73
2023-06-04T13:27:01.237Z,33.84
2023-06-04T13:28:02.234Z,33.49
2023-06-04T13:29:02.198Z,34.06
2023-06-04T13:30:01.239Z,33.85
2023-06-04T13:31:02.211Z,33.64
2023-06-04T13:32:02.250Z,34.25
2023-06-04T13:33:02.226Z,33.73
2023-06-04T13:34:06.471Z,34.37
2023-06-04T13:35:02.216Z,34.09
2023-06-04T13:36:02.201Z,34.25
2023-06-04T13:37:01.205Z,34.29
2023-06-04T13:38:02.199Z,33.94
2023-06-04T13:39:02.550Z,34.65
2023-06-04T13:40:02.172Z,34.59
2023-06-04T13:41:02.158Z,34.17
2023-06-04T13:42:02.178Z,33.91
2023-06-04T13:43:01.151Z,33.75
2023-06-04T13:44:01.138Z,34.23
2023-06-04T13:45:01.128Z,33.56
2023-06-04T13:46:01.201Z,33.57
2023-06-04T13:47:01.108Z,33.67
2023-06-04T13:48:01.112Z,33.36
2023-06-04T13:49:02.125Z,33.30
2023-06-04T13:50:02.141Z,33.11
2023-06-04T13:51:02.153Z,33.01
2023-06-04T13:52:02.203Z,32.70
2023-06-04T13:53:02.260Z,32.93
2023-06-04T13:54:01.269Z,32.82
2023-06-04T13:55:01.310Z,32.77
2023-06-04T13:56:02.331Z,32.72
2023-06-04T13:57:01.379Z,32.89
2023-06-04T13:58:02.397Z,32.98
2023-06-04T13:59:01.502Z,33.44
2023-06-04T14:00:02.519Z,33.52
2023-06-04T14:01:02.567Z,33.45
2023-06-04T14:02:02.614Z,33.28
2023-06-04T14:03:02.694Z,33.62
2023-06-04T14:04:01.758Z,33.12
2023-06-04T14:05:02.592Z,32.70
2023-06-04T14:06:01.654Z,32.82
2023-06-04T14:07:02.699Z,33.32
2023-06-04T14:08:02.729Z,33.06
2023-06-04T14:09:04.279Z,33.29
2023-06-04T14:10:02.880Z,33.26
2023-06-04T14:11:02.907Z,33.52
2023-06-04T14:12:01.958Z,33.46
2023-06-04T14:13:02.970Z,33.33
2023-06-04T14:14:01.957Z,33.53
2023-06-04T14:15:03.022Z,33.42
2023-06-04T14:16:03.090Z,33.06
2023-06-04T14:17:03.072Z,33.23
2023-06-04T14:18:02.120Z,33.41
2023-06-04T14:19:02.113Z,33.52
2023-06-04T14:20:03.156Z,33.59
2023-06-04T14:21:03.205Z,33.78
2023-06-04T14:22:02.191Z,33.28
2023-06-04T14:23:02.214Z,33.44
2023-06-04T14:24:03.390Z,33.38
2023-06-04T14:25:02.285Z,33.75
2023-06-04T14:26:03.308Z,33.81
2023-06-04T14:27:02.349Z,33.35
2023-06-04T14:28:03.346Z,33.23
2023-06-04T14:29:03.386Z,32.96
2023-06-04T14:30:03.446Z,33.52
2023-06-04T14:31:02.513Z,33.52
2023-06-04T14:32:03.534Z,34.07
2023-06-04T14:33:03.562Z,34.19
2023-06-04T14:34:02.499Z,34.09
2023-06-04T14:35:03.536Z,34.42
2023-06-04T14:36:02.566Z,34.19
2023-06-04T14:37:03.612Z,34.56
2023-06-04T14:38:02.665Z,34.74
2023-06-04T14:39:02.691Z,34.84
2023-06-04T14:40:02.716Z,33.83
2023-06-04T14:41:02.778Z,33.53
2023-06-04T14:42:03.785Z,33.53
2023-06-04T14:43:03.788Z,33.35
2023-06-04T14:44:02.815Z,32.90
2023-06-04T14:45:03.805Z,32.80
2023-06-04T14:46:02.852Z,32.73
2023-06-04T14:47:02.858Z,31.77
2023-06-04T14:48:14.061Z,32.25
2023-06-04T14:49:03.894Z,32.55
2023-06-04T14:50:03.918Z,32.10
2023-06-04T14:51:02.887Z,32.15
2023-06-04T14:52:03.882Z,32.28
2023-06-04T14:53:02.860Z,32.58
2023-06-04T14:54:02.851Z,32.36
2023-06-04T14:55:03.876Z,32.57
2023-06-04T14:56:02.851Z,32.34
2023-06-04T14:57:03.852Z,31.69
2023-06-04T14:58:03.901Z,32.59
2023-06-04T14:59:03.842Z,32.36
2023-06-04T15:00:02.812Z,31.68
2023-06-04T15:01:03.792Z,31.95
2023-06-04T15:02:03.890Z,32.06
2023-06-04T15:03:02.913Z,32.21
2023-06-04T15:04:03.934Z,31.76
2023-06-04T15:05:02.779Z,32.07
2023-06-04T15:06:14.811Z,31.96
2023-06-04T15:07:03.774Z,31.88
2023-06-04T15:08:03.768Z,32.11
2023-06-04T15:09:02.741Z,31.79
2023-06-04T15:10:03.758Z,31.62
2023-06-04T15:11:03.772Z,31.65
2023-06-04T15:12:05.166Z,31.41
2023-06-04T15:13:02.931Z,31.63
2023-06-04T15:14:03.935Z,31.39
2023-06-04T15:15:03.964Z,31.61
2023-06-04T15:16:03.990Z,31.70
2023-06-04T15:17:04.031Z,31.70
2023-06-04T15:18:03.135Z,31.55
2023-06-04T15:19:03.206Z,31.43
2023-06-04T15:20:04.175Z,31.38
2023-06-04T15:21:03.171Z,31.09